Time;durP1;ratioP1;P1;durP2;ratioP2;P2;SDS_P1;SDS_P2;PMS_P1;PMS_P2;Temp;Humidity;BMP_temperature;BMP_pressure;BME280_temperature;BME280_humidity;BME280_pressure;Samples;Min_cycle;Max_cycle;Signal;HPM_P1;HPM_P2
2020/12/12 00:00:04;;;;;;;21.45;15.57;;;1.80;99.90;;;;;;5034265;28;20080;-82
2020/12/12 00:02:31;;;;;;;21.27;14.80;;;1.80;99.90;;;;;;5034984;28;20049;-81
2020/12/12 00:04:58;;;;;;;20.30;15.35;;;1.90;99.90;;;;;;5035286;28;20081;-83
2020/12/12 00:07:24;;;;;;;22.05;16.00;;;1.80;99.90;;;;;;5035268;28;20111;-81
2020/12/12 00:09:51;;;;;;;17.67;14.25;;;1.80;99.90;;;;;;5035319;28;20233;-82
2020/12/12 00:12:18;;;;;;;21.98;15.38;;;1.90;99.90;;;;;;5035261;28;20088;-82
2020/12/12 00:14:44;;;;;;;20.40;15.00;;;1.90;99.90;;;;;;5035282;28;20461;-83
2020/12/12 00:17:10;;;;;;;20.90;15.02;;;1.90;99.90;;;;;;5036516;28;20056;-83
2020/12/12 00:19:37;;;;;;;21.55;15.13;;;1.90;99.90;;;;;;5037211;28;20052;-83
2020/12/12 00:22:03;;;;;;;20.38;14.38;;;2.00;99.90;;;;;;5037193;28;20072;-83
2020/12/12 00:24:29;;;;;;;19.98;13.90;;;2.10;99.90;;;;;;5036747;28;20077;-83
2020/12/12 00:26:56;;;;;;;21.23;14.38;;;2.20;99.90;;;;;;5036829;28;20133;-83
2020/12/12 00:29:23;;;;;;;19.25;14.15;;;2.20;99.90;;;;;;5036600;28;20045;-83
2020/12/12 00:31:56;;;;;;;20.15;14.02;;;2.30;99.90;;;;;;5036814;28;20464;-83
2020/12/12 00:34:24;;;;;;;18.38;13.85;;;2.30;99.90;;;;;;5036420;28;20050;-83
2020/12/12 00:36:51;;;;;;;18.23;13.82;;;2.40;99.90;;;;;;5035881;28;20513;-83
2020/12/12 00:39:18;;;;;;;20.95;13.75;;;2.40;99.90;;;;;;5036023;28;20490;-83
2020/12/12 00:41:45;;;;;;;20.25;14.73;;;2.40;99.90;;;;;;5036487;28;20095;-83
2020/12/12 00:44:13;;;;;;;18.83;14.02;;;2.40;99.90;;;;;;5036654;28;20053;-83
2020/12/12 00:46:39;;;;;;;18.10;13.00;;;2.40;99.90;;;;;;5035929;28;20045;-83
2020/12/12 00:49:07;;;;;;;20.30;13.57;;;2.40;99.90;;;;;;5035558;28;20052;-82
2020/12/12 00:51:33;;;;;;;17.15;13.48;;;2.40;99.90;;;;;;5035150;28;20543;-83
2020/12/12 00:54:00;;;;;;;17.83;13.30;;;2.50;99.90;;;;;;5035151;28;20087;-83
2020/12/12 00:56:26;;;;;;;17.23;13.10;;;2.50;99.90;;;;;;5034275;28;20092;-83
2020/12/12 00:58:53;;;;;;;18.00;13.48;;;2.60;99.90;;;;;;5034939;28;20057;-83
2020/12/12 01:01:21;;;;;;;17.00;13.27;;;2.60;99.90;;;;;;5034767;28;20128;-83
2020/12/12 01:03:48;;;;;;;16.60;12.77;;;2.60;99.90;;;;;;5035564;28;20053;-81
2020/12/12 01:06:18;;;;;;;17.10;12.98;;;2.60;99.90;;;;;;5033746;28;20453;-83
2020/12/12 01:08:46;;;;;;;18.92;13.18;;;2.70;99.90;;;;;;5034903;28;20447;-82
2020/12/12 01:11:13;;;;;;;16.40;13.30;;;2.70;99.90;;;;;;5034228;28;20473;-83
2020/12/12 01:13:39;;;;;;;17.80;14.52;;;2.60;99.90;;;;;;5034155;28;20590;-82
2020/12/12 01:16:11;;;;;;;15.75;12.68;;;2.60;99.90;;;;;;5034663;28;20046;-83
2020/12/12 01:18:37;;;;;;;15.70;12.85;;;2.60;99.90;;;;;;5034273;28;20140;-83
2020/12/12 01:21:04;;;;;;;18.52;13.27;;;2.60;99.90;;;;;;5035037;28;20169;-83
2020/12/12 01:23:32;;;;;;;18.00;13.52;;;2.50;99.90;;;;;;5034634;28;20049;-83
2020/12/12 01:26:04;;;;;;;18.58;13.48;;;2.40;99.90;;;;;;5034365;28;20052;-83
2020/12/12 01:28:31;;;;;;;19.08;14.52;;;2.30;99.90;;;;;;5034573;28;20099;-82
2020/12/12 01:30:57;;;;;;;18.17;13.35;;;2.20;99.90;;;;;;5032762;28;20132;-82
2020/12/12 01:33:23;;;;;;;18.27;14.07;;;2.10;99.90;;;;;;5034534;28;20091;-83
2020/12/12 01:35:50;;;;;;;21.83;15.43;;;2.10;99.90;;;;;;5033164;28;20240;-83
2020/12/12 01:38:16;;;;;;;24.77;15.07;;;2.10;99.90;;;;;;5033945;28;20128;-83
2020/12/12 01:40:43;;;;;;;20.90;13.90;;;2.10;99.90;;;;;;5033841;28;20141;-83
2020/12/12 01:43:11;;;;;;;22.17;15.82;;;2.10;99.90;;;;;;5034023;28;20118;-83
2020/12/12 01:45:39;;;;;;;20.02;14.85;;;2.10;99.90;;;;;;5033871;28;20140;-83
2020/12/12 01:48:08;;;;;;;26.60;16.13;;;2.10;99.90;;;;;;5033220;28;20048;-82
2020/12/12 01:50:38;;;;;;;20.92;14.90;;;2.10;99.90;;;;;;5033174;28;20045;-83
2020/12/12 01:53:05;;;;;;;18.25;13.77;;;2.10;99.90;;;;;;5033328;28;20059;-83
2020/12/12 01:55:31;;;;;;;19.90;14.10;;;2.20;99.90;;;;;;5032958;28;20049;-82
2020/12/12 01:57:58;;;;;;;19.20;13.93;;;2.30;99.90;;;;;;5032671;28;20089;-82
2020/12/12 02:00:25;;;;;;;17.50;13.50;;;2.30;99.90;;;;;;5032357;28;20502;-82
2020/12/12 02:02:54;;;;;;;17.98;14.15;;;2.40;99.90;;;;;;5032701;28;20132;-82
2020/12/12 02:05:38;;;;;;;17.50;13.32;;;2.40;99.90;;;;;;5034432;28;20072;-84
2020/12/12 02:08:08;;;;;;;18.60;13.23;;;2.40;99.90;;;;;;5035743;28;20045;-84
2020/12/12 02:10:35;;;;;;;17.63;13.45;;;2.40;99.90;;;;;;5035431;28;20042;-84
2020/12/12 02:13:03;;;;;;;17.27;13.80;;;2.40;99.90;;;;;;5035402;28;20531;-84
2020/12/12 02:15:29;;;;;;;20.95;14.65;;;2.40;99.90;;;;;;5034965;28;20510;-84
2020/12/12 02:17:55;;;;;;;16.52;13.52;;;2.50;99.90;;;;;;5034969;28;20049;-84
2020/12/12 02:20:22;;;;;;;16.88;12.90;;;2.50;99.90;;;;;;5034589;28;20624;-83
2020/12/12 02:22:48;;;;;;;17.65;13.10;;;2.60;99.90;;;;;;5034284;28;20073;-83
2020/12/12 02:25:14;;;;;;;15.88;12.82;;;2.60;99.90;;;;;;5034400;28;20132;-84
2020/12/12 02:27:40;;;;;;;17.33;13.65;;;2.50;99.90;;;;;;5034574;28;20145;-84
2020/12/12 02:30:08;;;;;;;18.00;12.93;;;2.60;99.90;;;;;;5034267;28;20498;-84
2020/12/12 02:32:35;;;;;;;18.92;13.88;;;2.60;99.90;;;;;;5034251;28;20080;-84
2020/12/12 02:35:04;;;;;;;16.70;13.88;;;2.60;99.90;;;;;;5033793;28;20092;-84
2020/12/12 02:37:31;;;;;;;18.90;13.52;;;2.50;99.90;;;;;;5033713;28;20053;-84
2020/12/12 02:39:57;;;;;;;18.48;13.77;;;2.50;99.90;;;;;;5033789;28;20085;-84
2020/12/12 02:42:24;;;;;;;20.92;13.55;;;2.50;99.90;;;;;;5033736;28;20517;-83
2020/12/12 02:44:51;;;;;;;18.00;13.93;;;2.50;99.90;;;;;;5033403;28;20096;-83
2020/12/12 02:47:18;;;;;;;17.98;14.50;;;2.50;99.90;;;;;;5033634;28;20077;-83
2020/12/12 02:49:55;;;;;;;17.17;13.82;;;2.40;99.90;;;;;;5033404;28;20077;-83
2020/12/12 02:52:21;;;;;;;20.77;13.77;;;2.30;99.90;;;;;;5033227;28;20049;-83
2020/12/12 02:54:47;;;;;;;18.55;13.27;;;2.40;99.90;;;;;;5033290;28;20105;-83
2020/12/12 02:57:13;;;;;;;19.42;13.95;;;2.40;99.90;;;;;;5033543;28;20494;-83
2020/12/12 02:59:40;;;;;;;18.80;13.65;;;2.40;99.90;;;;;;5032751;28;20049;-83
2020/12/12 03:02:06;;;;;;;20.08;14.80;;;2.30;99.90;;;;;;5033031;28;20084;-83
2020/12/12 03:04:32;;;;;;;17.50;13.50;;;2.30;99.90;;;;;;5032505;28;20045;-83
2020/12/12 03:06:59;;;;;;;18.40;14.07;;;2.20;99.90;;;;;;5032459;28;20050;-83
2020/12/12 03:09:25;;;;;;;19.90;14.60;;;2.20;99.90;;;;;;5033044;28;20124;-84
2020/12/12 03:11:51;;;;;;;18.55;14.00;;;2.20;99.90;;;;;;5032699;28;20124;-83
2020/12/12 03:14:17;;;;;;;18.85;14.73;;;2.10;99.90;;;;;;5032754;28;20084;-83
2020/12/12 03:16:44;;;;;;;20.13;14.77;;;2.10;99.90;;;;;;5032450;28;20172;-83
2020/12/12 03:19:10;;;;;;;20.80;14.52;;;2.10;99.90;;;;;;5032331;28;20099;-83
2020/12/12 03:21:37;;;;;;;22.88;15.93;;;1.90;99.90;;;;;;5032428;28;20119;-83
2020/12/12 03:24:03;;;;;;;19.48;14.68;;;1.80;99.90;;;;;;5032363;28;20145;-83
2020/12/12 03:26:29;;;;;;;21.55;14.65;;;1.80;99.90;;;;;;5032446;28;20464;-82
2020/12/12 03:28:56;;;;;;;24.40;16.17;;;1.80;99.90;;;;;;5032109;28;20089;-83
2020/12/12 03:31:22;;;;;;;22.20;16.08;;;1.70;99.90;;;;;;5032433;28;20088;-83
2020/12/12 03:33:48;;;;;;;22.23;15.70;;;1.70;99.90;;;;;;5032422;28;20132;-82
2020/12/12 03:36:15;;;;;;;20.73;15.55;;;1.80;99.90;;;;;;5034812;28;20049;-82
2020/12/12 03:38:41;;;;;;;20.10;13.68;;;1.90;99.90;;;;;;5035372;28;20501;-82
2020/12/12 03:41:07;;;;;;;20.15;15.25;;;2.00;99.90;;;;;;5035673;28;20447;-83
2020/12/12 03:43:33;;;;;;;22.33;15.35;;;2.10;99.90;;;;;;5035568;28;20141;-83
2020/12/12 03:46:01;;;;;;;18.95;14.27;;;2.20;99.90;;;;;;5036320;28;20514;-83
2020/12/12 03:48:29;;;;;;;18.95;13.85;;;2.30;99.90;;;;;;5035540;28;20045;-82
2020/12/12 03:50:55;;;;;;;19.65;14.63;;;2.30;99.90;;;;;;5035794;28;20053;-83
2020/12/12 03:53:21;;;;;;;19.17;14.43;;;2.40;99.90;;;;;;5036548;28;20095;-84
2020/12/12 03:55:47;;;;;;;19.23;13.88;;;2.40;99.90;;;;;;5038551;28;20061;-83
2020/12/12 03:58:14;;;;;;;17.35;13.82;;;2.40;99.90;;;;;;5037636;28;20136;-84
2020/12/12 04:00:40;;;;;;;19.35;14.60;;;2.50;99.90;;;;;;5037316;28;20132;-84
2020/12/12 04:03:07;;;;;;;17.77;13.90;;;2.50;99.90;;;;;;5036992;28;20133;-84
2020/12/12 04:05:33;;;;;;;18.45;13.45;;;2.60;99.90;;;;;;5037655;28;20052;-84
2020/12/12 04:07:59;;;;;;;19.77;14.38;;;2.60;99.90;;;;;;5037046;28;20045;-83
2020/12/12 04:10:25;;;;;;;19.60;15.02;;;2.60;99.90;;;;;;5037356;28;20132;-84
2020/12/12 04:12:52;;;;;;;18.67;13.57;;;2.70;99.90;;;;;;5036933;28;20056;-84
2020/12/12 04:15:18;;;;;;;21.23;15.07;;;2.70;99.90;;;;;;5036828;28;20041;-83
2020/12/12 04:17:44;;;;;;;18.83;13.82;;;2.70;99.90;;;;;;5036778;28;20049;-84
2020/12/12 04:20:11;;;;;;;18.63;14.15;;;2.70;99.90;;;;;;5036103;28;20460;-84
2020/12/12 04:22:37;;;;;;;19.70;14.18;;;2.70;99.90;;;;;;5036302;28;20049;-84
2020/12/12 04:25:03;;;;;;;19.40;13.30;;;2.80;99.90;;;;;;5035819;28;20100;-83
2020/12/12 04:27:30;;;;;;;19.60;13.90;;;2.80;99.90;;;;;;5034771;28;20124;-84
2020/12/12 04:29:57;;;;;;;22.17;14.75;;;2.80;99.90;;;;;;5035939;28;20592;-83
2020/12/12 04:32:23;;;;;;;20.05;14.40;;;2.80;99.90;;;;;;5035904;28;20054;-83
2020/12/12 04:34:50;;;;;;;19.55;13.88;;;2.80;99.90;;;;;;5035509;28;20049;-84
2020/12/12 04:37:16;;;;;;;18.35;14.15;;;2.80;99.90;;;;;;5035308;28;20136;-83
2020/12/12 04:39:43;;;;;;;19.65;14.20;;;2.90;99.90;;;;;;5035465;28;20133;-84
2020/12/12 04:42:12;;;;;;;22.23;15.15;;;2.90;99.90;;;;;;5035426;28;20140;-83
2020/12/12 04:44:40;;;;;;;20.40;14.75;;;2.90;99.90;;;;;;5034877;28;20136;-83
2020/12/12 04:47:07;;;;;;;19.85;14.05;;;3.00;99.90;;;;;;5034004;28;20045;-83
2020/12/12 04:49:34;;;;;;;21.98;14.82;;;3.00;99.90;;;;;;5035352;28;20045;-83
2020/12/12 04:52:04;;;;;;;18.75;13.82;;;3.00;99.90;;;;;;5035033;28;20545;-83
2020/12/12 04:54:33;;;;;;;19.40;14.02;;;3.00;99.90;;;;;;5034799;28;20107;-84
2020/12/12 04:57:04;;;;;;;20.08;14.90;;;3.00;99.90;;;;;;5034921;28;20092;-83
2020/12/12 04:59:31;;;;;;;20.85;15.30;;;2.90;99.90;;;;;;5034886;28;20091;-84
2020/12/12 05:02:03;;;;;;;20.08;14.80;;;2.90;99.90;;;;;;5034458;28;20132;-84
2020/12/12 05:04:29;;;;;;;23.70;16.20;;;2.90;99.90;;;;;;5034375;28;20406;-84
2020/12/12 05:06:55;;;;;;;22.73;16.05;;;2.80;99.90;;;;;;5034412;28;20049;-83
2020/12/12 05:09:22;;;;;;;22.63;15.98;;;2.80;99.90;;;;;;5034625;28;20045;-84
2020/12/12 05:11:50;;;;;;;21.33;15.07;;;2.80;99.90;;;;;;5034469;28;20054;-83
2020/12/12 05:14:16;;;;;;;21.20;15.38;;;2.80;99.90;;;;;;5034457;28;20072;-84
2020/12/12 05:16:45;;;;;;;23.45;15.80;;;2.80;99.90;;;;;;5034184;28;20053;-83
2020/12/12 05:19:15;;;;;;;22.70;15.80;;;2.70;99.90;;;;;;5034171;28;20085;-84
2020/12/12 05:21:46;;;;;;;22.48;15.85;;;2.70;99.90;;;;;;5032944;28;20103;-84
2020/12/12 05:24:12;;;;;;;23.85;16.35;;;2.70;99.90;;;;;;5034143;28;20080;-83
2020/12/12 05:26:39;;;;;;;24.13;15.75;;;2.70;99.90;;;;;;5033154;28;20129;-83
2020/12/12 05:29:08;;;;;;;23.90;16.13;;;2.80;99.90;;;;;;5033887;28;20128;-83
2020/12/12 05:31:35;;;;;;;24.27;15.40;;;2.70;99.90;;;;;;5033660;28;20399;-83
2020/12/12 05:34:14;;;;;;;23.83;15.75;;;2.80;99.90;;;;;;5032090;28;20045;-83
2020/12/12 05:36:42;;;;;;;26.13;16.55;;;2.80;99.90;;;;;;5033537;28;20136;-83
2020/12/12 05:39:11;;;;;;;25.20;16.15;;;2.80;99.90;;;;;;5033605;28;20077;-83
2020/12/12 05:41:38;;;;;;;22.35;15.57;;;2.80;99.90;;;;;;5033572;28;20459;-85
2020/12/12 05:44:05;;;;;;;23.58;16.00;;;2.80;99.90;;;;;;5036974;28;20053;-84
2020/12/12 05:46:31;;;;;;;24.65;16.30;;;2.80;99.90;;;;;;5036037;28;20111;-84
2020/12/12 05:48:58;;;;;;;23.63;16.10;;;2.80;99.90;;;;;;5035192;28;20045;-84
2020/12/12 05:51:28;;;;;;;26.30;16.70;;;2.80;99.90;;;;;;5035667;28;20053;-84
2020/12/12 05:53:55;;;;;;;24.55;15.82;;;2.80;99.90;;;;;;5035482;28;20088;-84
2020/12/12 05:56:23;;;;;;;24.30;15.27;;;2.80;99.90;;;;;;5035230;28;20395;-84
2020/12/12 05:58:51;;;;;;;25.38;16.40;;;2.80;99.90;;;;;;5033706;28;20050;-84
2020/12/12 06:01:20;;;;;;;26.23;17.00;;;2.80;99.90;;;;;;5034927;28;20454;-84
2020/12/12 06:03:52;;;;;;;25.05;16.60;;;2.80;99.90;;;;;;5036026;28;20057;-83
2020/12/12 06:06:24;;;;;;;24.80;16.00;;;2.80;99.90;;;;;;5035478;28;20052;-84
2020/12/12 06:09:06;;;;;;;25.17;16.27;;;2.80;99.90;;;;;;5036793;28;20133;-84
2020/12/12 06:11:34;;;;;;;24.92;16.35;;;2.80;99.90;;;;;;5041611;28;20044;-86
2020/12/12 06:14:03;;;;;;;29.70;17.13;;;2.80;99.90;;;;;;5057523;28;20034;-85
2020/12/12 06:16:31;;;;;;;25.17;16.63;;;2.80;99.90;;;;;;5058323;28;20045;-86
2020/12/12 06:19:15;;;;;;;23.25;15.75;;;2.80;99.90;;;;;;5056892;28;20034;-85
2020/12/12 06:21:43;;;;;;;23.08;16.38;;;2.80;99.90;;;;;;5041162;28;20056;-84
2020/12/12 06:24:18;;;;;;;22.30;15.52;;;2.80;99.90;;;;;;5039218;28;20465;-84
2020/12/12 06:27:07;;;;;;;25.88;16.95;;;2.80;99.90;;;;;;5039808;28;20425;-84
2020/12/12 06:29:43;;;;;;;25.83;16.13;;;2.80;99.90;;;;;;5039606;28;20049;-84
2020/12/12 06:32:13;;;;;;;24.55;16.58;;;2.90;99.90;;;;;;5040021;28;20049;-84
2020/12/12 06:34:48;;;;;;;25.75;15.95;;;2.80;99.90;;;;;;5039803;28;20057;-84
2020/12/12 06:37:44;;;;;;;25.77;16.80;;;2.90;99.90;;;;;;5038526;28;20148;-84
2020/12/12 06:40:15;;;;;;;23.90;16.65;;;2.90;99.90;;;;;;5025735;28;20053;-84
2020/12/12 06:42:44;;;;;;;24.02;16.25;;;2.90;99.90;;;;;;5037986;28;20057;-84
2020/12/12 06:45:13;;;;;;;25.80;16.55;;;3.00;99.90;;;;;;5037372;28;20119;-84
2020/12/12 06:47:41;;;;;;;26.83;16.73;;;3.00;99.90;;;;;;5037950;28;20084;-84
2020/12/12 06:50:09;;;;;;;25.92;18.00;;;3.00;99.90;;;;;;5040002;28;20045;-84
2020/12/12 06:52:36;;;;;;;27.23;16.92;;;3.00;99.90;;;;;;5039379;28;20042;-83
2020/12/12 06:55:07;;;;;;;28.52;17.30;;;3.00;99.90;;;;;;5039657;28;20509;-84
2020/12/12 06:58:16;;;;;;;32.10;18.38;;;3.00;99.90;;;;;;5038076;28;20080;-84
2020/12/12 07:00:34;;;;;;;25.45;16.67;;;3.00;99.90;;;;;;5035749;28;20057;-83
2020/12/12 07:03:03;;;;;;;26.33;16.95;;;3.00;99.90;;;;;;5036977;28;20140;-84
2020/12/12 07:05:35;;;;;;;24.80;17.25;;;2.90;99.90;;;;;;5038823;28;20471;-84
2020/12/12 07:08:04;;;;;;;31.55;18.75;;;2.90;99.90;;;;;;5036940;28;20053;-84
2020/12/12 07:10:32;;;;;;;29.65;19.52;;;2.80;99.90;;;;;;5038306;28;20084;-84
2020/12/12 07:13:02;;;;;;;30.13;19.35;;;2.80;99.90;;;;;;5041043;28;20533;-84
2020/12/12 07:15:33;;;;;;;30.33;19.42;;;2.80;99.90;;;;;;5040642;28;20061;-84
2020/12/12 07:18:07;;;;;;;32.55;19.70;;;2.70;99.90;;;;;;5041147;28;20061;-85
2020/12/12 07:20:38;;;;;;;31.65;20.10;;;2.70;99.90;;;;;;5035318;28;20171;-84
2020/12/12 07:23:06;;;;;;;30.08;18.95;;;2.60;99.90;;;;;;5035058;28;20111;-84
2020/12/12 07:25:35;;;;;;;29.92;19.98;;;2.60;99.90;;;;;;5035220;28;20053;-84
2020/12/12 07:28:02;;;;;;;27.90;18.40;;;2.60;99.90;;;;;;5034984;28;20054;-84
2020/12/12 07:30:34;;;;;;;28.00;17.90;;;2.60;99.90;;;;;;5035007;28;20057;-84
2020/12/12 07:33:02;;;;;;;29.80;19.83;;;2.70;99.90;;;;;;5035782;28;20132;-84
2020/12/12 07:35:30;;;;;;;34.15;20.42;;;2.70;99.90;;;;;;5044816;28;20075;-86
2020/12/12 07:38:04;;;;;;;39.88;23.70;;;2.70;99.90;;;;;;5044778;28;20073;-85
2020/12/12 07:40:32;;;;;;;32.33;20.45;;;2.70;99.90;;;;;;5043745;28;20079;-84
2020/12/12 07:42:58;;;;;;;31.48;18.63;;;2.80;99.90;;;;;;5043613;28;20069;-84
2020/12/12 07:48:04;;;;;;;28.42;18.48;;;2.80;99.90;;;;;;5043955;28;20123;-84
2020/12/12 07:50:31;;;;;;;30.70;19.63;;;2.90;99.90;;;;;;5044031;28;20128;-84
2020/12/12 07:53:14;;;;;;;27.52;17.38;;;3.00;99.90;;;;;;5042088;28;20076;-84
2020/12/12 07:55:44;;;;;;;28.20;17.98;;;3.00;99.90;;;;;;5039719;28;20117;-84
2020/12/12 07:58:18;;;;;;;27.02;17.27;;;3.10;99.90;;;;;;5040833;28;20485;-84
2020/12/12 08:00:45;;;;;;;23.80;15.90;;;3.10;99.90;;;;;;5040448;28;20065;-84
2020/12/12 08:03:11;;;;;;;25.42;16.33;;;3.20;99.90;;;;;;5039881;28;20085;-84
2020/12/12 08:05:37;;;;;;;25.05;15.63;;;3.30;99.90;;;;;;5040764;28;20060;-84
2020/12/12 08:08:10;;;;;;;25.70;16.08;;;3.30;99.90;;;;;;5040757;28;20069;-84
2020/12/12 08:10:37;;;;;;;25.08;15.07;;;3.40;99.90;;;;;;5039997;28;20512;-85
2020/12/12 08:13:03;;;;;;;23.63;16.13;;;3.50;99.90;;;;;;5040711;28;20079;-84
2020/12/12 08:15:37;;;;;;;26.70;16.58;;;3.50;99.90;;;;;;5038857;28;20053;-84
2020/12/12 08:18:14;;;;;;;21.70;15.02;;;3.50;99.90;;;;;;5038853;28;20065;-85
2020/12/12 08:20:41;;;;;;;22.48;15.00;;;3.50;99.90;;;;;;5039324;28;20144;-84
2020/12/12 08:23:14;;;;;;;20.05;14.00;;;3.60;99.90;;;;;;5038547;28;20511;-84
2020/12/12 08:25:41;;;;;;;20.55;14.02;;;3.60;99.90;;;;;;5038611;28;20049;-84
2020/12/12 08:28:08;;;;;;;22.40;14.90;;;3.70;99.90;;;;;;5038220;28;20564;-84
2020/12/12 08:30:35;;;;;;;20.92;14.18;;;3.70;99.90;;;;;;5038412;28;20544;-84
2020/12/12 08:33:11;;;;;;;21.75;14.80;;;3.80;99.90;;;;;;5038140;28;20084;-84
2020/12/12 08:35:52;;;;;;;20.70;13.95;;;3.90;99.90;;;;;;5038171;28;20501;-84
2020/12/12 08:38:19;;;;;;;20.92;14.32;;;4.00;99.90;;;;;;5037628;28;20049;-84
2020/12/12 08:40:48;;;;;;;21.50;15.18;;;3.90;99.90;;;;;;5037978;28;20077;-85
2020/12/12 08:43:16;;;;;;;21.60;14.60;;;3.90;99.90;;;;;;5038091;28;20067;-84
2020/12/12 08:45:56;;;;;;;21.90;14.23;;;3.90;99.90;;;;;;5038134;28;20049;-84
2020/12/12 08:48:31;;;;;;;20.40;13.90;;;3.90;99.90;;;;;;5037304;28;20041;-84
2020/12/12 08:50:59;;;;;;;20.65;13.23;;;3.90;99.90;;;;;;5037714;28;20145;-84
2020/12/12 08:53:29;;;;;;;28.10;18.50;;;3.80;99.90;;;;;;5037267;28;20076;-84
2020/12/12 08:56:05;;;;;;;23.48;16.77;;;3.80;99.90;;;;;;5036312;28;20049;-83
2020/12/12 08:58:40;;;;;;;19.75;13.75;;;3.70;99.90;;;;;;5037080;28;20104;-84
2020/12/12 09:01:16;;;;;;;18.73;13.10;;;3.80;99.90;;;;;;5036471;28;20061;-84
2020/12/12 09:04:01;;;;;;;19.73;13.50;;;3.80;99.90;;;;;;5037406;28;20067;-85
2020/12/12 09:06:34;;;;;;;18.63;13.70;;;3.90;99.90;;;;;;5036716;28;20091;-84
2020/12/12 09:09:10;;;;;;;17.42;13.13;;;4.00;99.90;;;;;;5036649;28;20141;-84
2020/12/12 09:11:39;;;;;;;18.10;13.23;;;4.10;99.90;;;;;;5036973;28;20050;-84
2020/12/12 09:14:06;;;;;;;15.95;12.02;;;4.30;99.90;;;;;;5033014;28;20045;-84
2020/12/12 09:16:33;;;;;;;15.57;11.68;;;4.40;99.90;;;;;;5032809;28;20053;-84
2020/12/12 09:19:00;;;;;;;16.77;12.10;;;4.50;99.90;;;;;;5032489;28;20061;-84
2020/12/12 09:21:29;;;;;;;16.92;11.68;;;4.60;99.90;;;;;;5033103;28;20429;-84
2020/12/12 09:23:55;;;;;;;19.05;12.57;;;4.70;99.90;;;;;;5034457;28;20157;-84
2020/12/12 09:26:21;;;;;;;16.67;11.88;;;4.80;99.90;;;;;;5036322;28;20061;-86
2020/12/12 09:28:48;;;;;;;16.92;12.20;;;4.80;99.90;;;;;;5040511;28;20069;-86
2020/12/12 09:31:17;;;;;;;20.02;12.18;;;4.80;99.90;;;;;;5039790;28;20045;-85
2020/12/12 09:33:43;;;;;;;15.88;12.10;;;4.80;99.90;;;;;;5040798;28;20057;-85
2020/12/12 09:36:10;;;;;;;16.33;12.30;;;4.80;99.90;;;;;;5038869;28;20045;-85
2020/12/12 09:38:41;;;;;;;20.30;13.50;;;4.80;99.90;;;;;;5037910;28;20046;-85
2020/12/12 09:41:07;;;;;;;18.23;12.85;;;4.80;99.90;;;;;;5038548;28;20136;-85
2020/12/12 09:43:35;;;;;;;17.90;12.65;;;4.90;99.90;;;;;;5037630;28;20049;-85
2020/12/12 09:46:02;;;;;;;18.83;11.98;;;4.90;99.90;;;;;;5037296;28;20049;-84
2020/12/12 09:48:28;;;;;;;18.42;13.02;;;5.00;99.90;;;;;;5038959;28;20045;-85
2020/12/12 09:50:55;;;;;;;21.02;13.98;;;5.00;99.90;;;;;;5037069;28;20138;-84
2020/12/12 09:53:21;;;;;;;20.20;13.27;;;4.90;99.90;;;;;;5036781;28;20061;-84
2020/12/12 09:55:48;;;;;;;18.00;12.68;;;5.00;99.90;;;;;;5036921;28;20048;-84
2020/12/12 09:58:14;;;;;;;19.00;12.52;;;5.10;99.90;;;;;;5037622;28;20073;-84
2020/12/12 10:00:41;;;;;;;19.50;14.00;;;5.20;99.90;;;;;;5035842;28;20077;-84
2020/12/12 10:03:08;;;;;;;18.15;12.85;;;5.20;99.90;;;;;;5037006;28;20136;-84
2020/12/12 10:05:35;;;;;;;20.60;13.57;;;5.30;99.90;;;;;;5036858;28;20483;-84
2020/12/12 10:08:03;;;;;;;19.20;12.88;;;5.30;99.90;;;;;;5034894;28;20045;-84
2020/12/12 10:10:30;;;;;;;20.45;13.50;;;5.30;99.90;;;;;;5035649;28;20045;-83
2020/12/12 10:12:57;;;;;;;19.27;13.48;;;5.40;99.90;;;;;;5036357;28;20073;-84
2020/12/12 10:15:24;;;;;;;19.50;13.90;;;5.30;99.90;;;;;;5035376;28;20501;-84
2020/12/12 10:17:51;;;;;;;18.83;13.63;;;5.40;99.90;;;;;;5034251;28;20084;-83
2020/12/12 10:20:18;;;;;;;17.80;13.32;;;5.50;99.90;;;;;;5036043;28;20080;-84
2020/12/12 10:22:45;;;;;;;18.98;13.68;;;5.50;99.90;;;;;;5035972;28;20080;-84
2020/12/12 10:25:11;;;;;;;18.63;13.13;;;5.50;99.90;;;;;;5036633;28;20054;-84
2020/12/12 10:27:38;;;;;;;18.75;12.82;;;5.50;99.90;;;;;;5035850;28;20049;-84
2020/12/12 10:30:07;;;;;;;20.08;13.93;;;5.60;99.90;;;;;;5036071;28;20073;-84
2020/12/12 10:32:35;;;;;;;50.75;14.88;;;5.60;99.90;;;;;;5035467;28;20052;-83
2020/12/12 10:35:04;;;;;;;19.73;14.25;;;5.60;99.90;;;;;;5035882;28;20049;-83
2020/12/12 10:37:30;;;;;;;19.95;13.45;;;5.60;99.90;;;;;;5035564;28;20053;-83
2020/12/12 10:40:11;;;;;;;21.00;14.43;;;5.60;99.90;;;;;;5035004;28;20450;-84
2020/12/12 10:42:40;;;;;;;20.88;15.27;;;5.60;99.90;;;;;;5035401;28;20049;-84
2020/12/12 10:45:07;;;;;;;21.77;14.82;;;5.60;99.90;;;;;;5035830;28;20560;-83
2020/12/12 10:47:34;;;;;;;20.20;13.50;;;5.60;99.90;;;;;;5038724;28;20041;-84
2020/12/12 10:50:01;;;;;;;18.73;13.90;;;5.70;99.90;;;;;;5039221;28;20046;-84
2020/12/12 10:52:36;;;;;;;20.55;14.60;;;5.70;99.90;;;;;;5037303;28;20091;-83
2020/12/12 10:55:04;;;;;;;18.92;13.23;;;5.80;99.90;;;;;;5037613;28;20076;-84
2020/12/12 10:57:31;;;;;;;20.35;14.00;;;5.80;99.90;;;;;;5038984;28;20045;-83
2020/12/12 10:59:58;;;;;;;18.27;13.45;;;5.80;99.90;;;;;;5039412;28;20104;-83
2020/12/12 11:02:28;;;;;;;18.75;13.15;;;6.00;99.90;;;;;;5038978;28;20063;-83
2020/12/12 11:04:54;;;;;;;17.77;12.82;;;6.20;99.90;;;;;;5037009;28;20053;-82
2020/12/12 11:07:21;;;;;;;19.35;13.18;;;6.30;99.90;;;;;;5035989;28;20132;-83
2020/12/12 11:09:47;;;;;;;18.35;13.75;;;6.20;99.90;;;;;;5036317;28;20403;-83
2020/12/12 11:12:14;;;;;;;18.65;13.73;;;6.10;99.90;;;;;;5036146;28;20076;-83
2020/12/12 11:14:47;;;;;;;20.48;13.57;;;6.00;99.90;;;;;;5036283;28;20129;-82
2020/12/12 11:17:13;;;;;;;21.13;14.40;;;5.80;99.90;;;;;;5036533;28;20049;-83
2020/12/12 11:19:40;;;;;;;20.20;13.30;;;5.80;99.90;;;;;;5040541;28;20136;-84
2020/12/12 11:22:07;;;;;;;20.75;13.98;;;5.80;99.90;;;;;;5042918;28;20061;-84
2020/12/12 11:24:33;;;;;;;17.50;13.18;;;5.80;99.90;;;;;;5042792;28;20088;-84
2020/12/12 11:27:00;;;;;;;19.27;12.73;;;5.90;99.90;;;;;;5042522;28;20045;-84
2020/12/12 11:29:26;;;;;;;20.90;14.35;;;5.90;99.90;;;;;;5041583;28;20077;-83
2020/12/12 11:31:53;;;;;;;17.85;12.55;;;5.80;99.90;;;;;;5041450;28;20077;-83
2020/12/12 11:46:57;;;;;;;20.10;13.43;;;5.60;99.90;;;;;;5039776;28;20111;-83
2020/12/12 11:49:24;;;;;;;19.73;13.60;;;5.70;99.90;;;;;;5039469;28;20046;-83
2020/12/12 11:51:51;;;;;;;21.20;13.95;;;5.70;99.90;;;;;;5039001;28;20052;-83
2020/12/12 11:54:17;;;;;;;21.02;14.60;;;5.60;99.90;;;;;;5038474;28;20417;-83
2020/12/12 11:56:43;;;;;;;19.85;13.68;;;5.60;99.90;;;;;;5037791;28;20069;-83
2020/12/12 11:59:12;;;;;;;23.48;14.10;;;5.70;99.90;;;;;;5038434;28;20124;-83
2020/12/12 12:01:38;;;;;;;22.05;14.25;;;5.70;99.90;;;;;;5038517;28;20403;-83
2020/12/12 12:04:07;;;;;;;20.35;14.40;;;5.50;99.90;;;;;;5036269;28;20055;-83
2020/12/12 12:06:34;;;;;;;23.60;15.13;;;5.50;99.90;;;;;;5035474;28;20050;-84
2020/12/12 12:11:34;;;;;;;20.48;13.95;;;5.30;99.90;;;;;;5035558;28;20136;-84
2020/12/12 12:14:03;;;;;;;21.20;14.07;;;5.40;99.90;;;;;;5035790;28;20128;-84
2020/12/12 12:16:35;;;;;;;19.90;14.00;;;5.40;99.90;;;;;;5035685;28;20107;-83
2020/12/12 12:19:04;;;;;;;19.05;13.20;;;5.40;99.90;;;;;;5035344;28;20116;-84
2020/12/12 12:21:31;;;;;;;24.40;16.52;;;5.50;99.90;;;;;;5035256;28;20048;-83
2020/12/12 12:23:57;;;;;;;21.50;15.23;;;5.40;99.90;;;;;;5035301;28;20137;-83
2020/12/12 12:26:23;;;;;;;20.50;14.02;;;5.40;99.90;;;;;;5035327;28;20073;-83
2020/12/12 12:28:50;;;;;;;28.35;15.05;;;5.40;99.90;;;;;;5035336;28;20049;-84
2020/12/12 12:31:21;;;;;;;28.58;14.85;;;5.50;99.90;;;;;;5035588;28;20529;-84
2020/12/12 12:33:49;;;;;;;99.60;34.83;;;5.40;99.90;;;;;;5035018;28;20049;-83
2020/12/12 12:36:16;;;;;;;41.85;17.35;;;5.50;99.90;;;;;;5035371;28;20124;-82
2020/12/12 12:38:44;;;;;;;32.40;14.95;;;5.50;99.90;;;;;;5034604;28;20144;-84
2020/12/12 12:41:11;;;;;;;23.77;16.02;;;5.60;99.90;;;;;;5034811;28;20054;-83
2020/12/12 12:43:37;;;;;;;21.35;14.15;;;5.60;99.90;;;;;;5034959;28;20463;-83
2020/12/12 12:46:03;;;;;;;23.40;15.75;;;5.70;99.90;;;;;;5034936;28;20084;-84
2020/12/12 12:48:29;;;;;;;23.60;15.68;;;5.70;99.90;;;;;;5034978;28;20525;-83
2020/12/12 12:50:56;;;;;;;51.25;17.17;;;5.60;99.90;;;;;;5035211;28;20107;-83
2020/12/12 12:53:22;;;;;;;23.02;14.85;;;5.40;99.90;;;;;;5034582;28;20087;-84
2020/12/12 12:55:50;;;;;;;22.63;15.07;;;5.30;99.90;;;;;;5034765;28;20053;-84
2020/12/12 12:58:16;;;;;;;27.38;15.80;;;5.50;99.90;;;;;;5034551;28;20126;-83